createdAt,value
2018-12-30T00:02:26.030Z,86.33
2018-12-30T00:04:58.515Z,86.47
2018-12-30T00:07:30.938Z,86.31
2018-12-30T00:10:03.577Z,85.81
2018-12-30T00:12:35.649Z,86.09
2018-12-30T00:15:07.644Z,86.26
2018-12-30T00:17:39.671Z,86.27
2018-12-30T00:20:11.695Z,86.49
2018-12-30T00:22:43.722Z,86.12
2018-12-30T00:25:15.789Z,86.43
2018-12-30T00:27:47.797Z,86.56
2018-12-30T00:30:19.837Z,86.59
2018-12-30T00:32:51.827Z,86.62
2018-12-30T00:35:23.844Z,86.55
2018-12-30T00:37:55.811Z,86.51
2018-12-30T00:40:27.925Z,86.09
2018-12-30T00:42:59.921Z,86.01
2018-12-30T00:45:31.925Z,85.90
2018-12-30T00:48:03.900Z,86.34
2018-12-30T00:50:35.911Z,86.63
2018-12-30T00:53:07.923Z,86.89
2018-12-30T00:55:39.926Z,86.98
2018-12-30T00:58:11.913Z,87.03
2018-12-30T01:00:43.931Z,87.15
2018-12-30T01:03:15.955Z,87.41
2018-12-30T01:05:48.037Z,87.46
2018-12-30T01:08:20.040Z,87.57
2018-12-30T01:10:52.049Z,87.43
2018-12-30T01:13:24.432Z,87.42
2018-12-30T01:15:56.586Z,87.45
2018-12-30T01:18:28.548Z,87.25
2018-12-30T01:21:00.538Z,87.19
2018-12-30T01:23:32.538Z,87.01
2018-12-30T01:26:04.536Z,87.02
2018-12-30T01:28:36.540Z,86.66
2018-12-30T01:31:08.539Z,86.78
2018-12-30T01:33:40.544Z,87.15
2018-12-30T01:36:12.952Z,87.49
2018-12-30T01:38:44.908Z,87.26
2018-12-30T01:41:16.926Z,87.29
2018-12-30T01:43:48.907Z,87.42
2018-12-30T01:46:21.109Z,87.34
2018-12-30T01:48:53.090Z,87.39
2018-12-30T01:51:32.821Z,87.38
2018-12-30T01:53:59.587Z,87.41
2018-12-30T01:56:31.792Z,87.34
2018-12-30T01:59:03.822Z,87.58
2018-12-30T02:01:35.840Z,87.71
2018-12-30T02:04:07.818Z,87.72
2018-12-30T02:06:39.834Z,87.73
2018-12-30T02:09:11.831Z,87.93
2018-12-30T02:11:43.800Z,87.98
2018-12-30T02:14:15.791Z,87.82
2018-12-30T02:16:47.748Z,88.03
2018-12-30T02:19:19.748Z,88.03
2018-12-30T02:21:51.716Z,87.93
2018-12-30T02:24:23.703Z,87.93
2018-12-30T02:26:55.699Z,87.99
2018-12-30T02:29:27.684Z,87.74
2018-12-30T02:31:59.635Z,87.70
2018-12-30T02:34:31.629Z,87.68
2018-12-30T02:37:03.579Z,87.82
2018-12-30T02:39:35.812Z,88.03
2018-12-30T02:42:07.769Z,87.46
2018-12-30T02:44:39.741Z,87.53
2018-12-30T02:47:11.747Z,87.80
2018-12-30T02:49:43.782Z,87.91
2018-12-30T02:52:15.814Z,87.81
2018-12-30T02:54:47.795Z,87.99
2018-12-30T02:57:19.747Z,87.27
2018-12-30T02:59:51.758Z,87.83
2018-12-30T03:02:23.732Z,87.71
2018-12-30T03:04:55.721Z,87.40
2018-12-30T03:07:27.739Z,87.76
2018-12-30T03:09:59.743Z,87.94
2018-12-30T03:12:31.718Z,88.38
2018-12-30T03:15:03.897Z,88.24
2018-12-30T03:17:35.841Z,87.60
2018-12-30T03:20:07.822Z,88.50
2018-12-30T03:22:39.811Z,88.49
2018-12-30T03:25:11.815Z,88.16
2018-12-30T03:27:43.781Z,88.57
2018-12-30T03:30:15.806Z,88.09
2018-12-30T03:32:47.754Z,88.28
2018-12-30T03:35:19.701Z,88.41
2018-12-30T03:37:51.718Z,88.43
2018-12-30T03:40:23.665Z,88.23
2018-12-30T03:42:55.673Z,88.36
2018-12-30T03:45:27.682Z,87.53
2018-12-30T03:47:59.677Z,87.79
2018-12-30T03:50:31.647Z,88.36
2018-12-30T03:53:03.679Z,88.37
2018-12-30T03:55:35.786Z,88.41
2018-12-30T03:58:07.781Z,87.97
2018-12-30T04:00:39.744Z,88.03
2018-12-30T04:03:11.726Z,88.51
2018-12-30T04:05:43.713Z,88.08
2018-12-30T04:08:15.745Z,87.87
2018-12-30T04:10:47.705Z,87.80
2018-12-30T04:13:19.682Z,88.25
2018-12-30T04:15:51.621Z,88.00
2018-12-30T04:18:23.606Z,87.63
2018-12-30T04:20:55.561Z,87.38
2018-12-30T04:23:27.722Z,87.08
2018-12-30T04:25:59.712Z,87.55
2018-12-30T04:28:31.770Z,87.50
2018-12-30T04:31:03.757Z,87.49
2018-12-30T04:33:35.719Z,87.52
2018-12-30T04:36:07.740Z,87.57
2018-12-30T04:38:39.725Z,87.22
2018-12-30T04:41:11.718Z,87.80
2018-12-30T04:43:43.665Z,86.75
2018-12-30T04:46:15.647Z,87.07
2018-12-30T04:48:47.622Z,87.60
2018-12-30T04:51:19.613Z,87.53
2018-12-30T04:53:51.587Z,87.33
2018-12-30T04:56:23.579Z,87.20
2018-12-30T04:58:55.521Z,86.70
2018-12-30T05:01:27.512Z,87.23
2018-12-30T05:03:59.484Z,87.75
2018-12-30T05:06:31.515Z,87.77
2018-12-30T05:09:05.824Z,87.76
2018-12-30T05:11:37.861Z,87.45
2018-12-30T05:14:09.843Z,87.43
2018-12-30T05:16:41.830Z,87.75
2018-12-30T05:19:13.816Z,88.04
2018-12-30T05:21:45.813Z,87.49
2018-12-30T05:24:17.815Z,87.75
2018-12-30T05:26:49.791Z,87.99
2018-12-30T05:29:21.750Z,88.08
2018-12-30T05:31:53.743Z,87.67
2018-12-30T05:34:25.708Z,87.60
2018-12-30T05:36:57.693Z,87.34
2018-12-30T05:39:29.662Z,87.59
2018-12-30T05:42:01.623Z,87.80
2018-12-30T05:44:33.617Z,87.98
2018-12-30T05:47:07.031Z,87.72
2018-12-30T05:49:39.141Z,87.95
2018-12-30T05:52:11.103Z,87.53
2018-12-30T05:54:43.082Z,86.60
2018-12-30T05:57:15.065Z,87.07
2018-12-30T05:59:47.065Z,87.35
2018-12-30T06:02:19.433Z,87.66
2018-12-30T06:04:51.406Z,87.65
2018-12-30T06:07:23.488Z,87.43
2018-12-30T06:09:55.491Z,87.36
2018-12-30T06:12:27.460Z,87.64
2018-12-30T06:14:59.689Z,87.46
2018-12-30T06:17:31.682Z,87.40
2018-12-30T06:20:03.948Z,87.11
2018-12-30T06:22:35.899Z,87.18
2018-12-30T06:25:07.902Z,86.89
2018-12-30T06:27:39.859Z,86.39
2018-12-30T06:30:11.848Z,86.53
2018-12-30T06:32:43.825Z,86.68
2018-12-30T06:35:15.812Z,85.78
2018-12-30T06:37:47.787Z,86.14
2018-12-30T06:40:19.795Z,86.25
2018-12-30T06:42:51.776Z,86.61
2018-12-30T06:45:23.738Z,86.45
2018-12-30T06:47:55.700Z,86.55
2018-12-30T06:50:27.743Z,86.69
2018-12-30T06:52:59.732Z,86.67
2018-12-30T06:55:31.737Z,86.83
2018-12-30T06:58:03.692Z,86.71
2018-12-30T07:00:35.678Z,86.92
2018-12-30T07:03:07.676Z,86.21
2018-12-30T07:05:39.656Z,86.47
2018-12-30T07:08:11.661Z,86.58
2018-12-30T07:10:43.637Z,86.47
2018-12-30T07:13:15.635Z,86.65
2018-12-30T07:15:47.603Z,86.97
2018-12-30T07:18:19.598Z,86.54
2018-12-30T07:20:51.588Z,86.27
2018-12-30T07:23:23.683Z,86.36
2018-12-30T07:25:55.677Z,86.59
2018-12-30T07:28:27.672Z,86.51
2018-12-30T07:30:59.686Z,86.23
2018-12-30T07:33:31.689Z,85.72
2018-12-30T07:36:03.655Z,86.05
2018-12-30T07:38:35.643Z,86.40
2018-12-30T07:41:07.675Z,85.16
2018-12-30T07:43:39.703Z,85.84
2018-12-30T07:46:11.670Z,86.11
2018-12-30T07:48:43.648Z,86.05
2018-12-30T07:51:15.624Z,86.20
2018-12-30T07:53:47.641Z,86.29
2018-12-30T07:56:19.620Z,86.16
2018-12-30T07:58:51.637Z,86.75
2018-12-30T08:01:23.597Z,86.25
2018-12-30T08:03:55.589Z,85.96
2018-12-30T08:06:27.590Z,85.82
2018-12-30T08:08:59.603Z,85.90
2018-12-30T08:11:31.571Z,85.90
2018-12-30T08:14:03.547Z,86.19
2018-12-30T08:16:35.560Z,85.21
2018-12-30T08:19:07.570Z,85.21
2018-12-30T08:21:39.576Z,85.19
2018-12-30T08:24:11.594Z,85.12
2018-12-30T08:26:43.579Z,85.50
2018-12-30T08:29:15.837Z,83.78
2018-12-30T08:31:47.830Z,83.27
2018-12-30T08:34:19.842Z,84.21
2018-12-30T08:36:51.883Z,84.36
2018-12-30T08:39:23.880Z,83.75
2018-12-30T08:41:55.907Z,84.91
2018-12-30T08:44:27.893Z,84.56
2018-12-30T08:46:59.963Z,84.18
2018-12-30T08:49:31.987Z,83.28
2018-12-30T08:52:04.010Z,83.94
2018-12-30T08:54:35.991Z,84.45
2018-12-30T08:57:08.032Z,84.20
2018-12-30T08:59:40.044Z,84.19
2018-12-30T09:02:12.049Z,84.50
2018-12-30T09:04:44.054Z,84.91
2018-12-30T09:07:16.101Z,84.93
2018-12-30T09:09:48.108Z,84.80
2018-12-30T09:12:20.116Z,84.72
2018-12-30T09:14:52.116Z,84.72
2018-12-30T09:17:24.125Z,84.56
2018-12-30T09:19:56.125Z,84.46
2018-12-30T09:22:28.159Z,84.23
2018-12-30T09:25:00.170Z,83.67
2018-12-30T09:27:32.176Z,83.79
2018-12-30T09:30:05.008Z,83.69
2018-12-30T09:32:37.029Z,83.94
2018-12-30T09:35:09.136Z,83.95
2018-12-30T09:37:41.204Z,84.06
2018-12-30T09:40:13.313Z,83.97
2018-12-30T09:42:46.583Z,83.45
2018-12-30T09:45:18.616Z,83.16
2018-12-30T09:47:50.715Z,81.63
2018-12-30T09:50:22.738Z,82.14
2018-12-30T09:52:54.738Z,81.84
2018-12-30T09:55:26.764Z,82.37
2018-12-30T09:57:58.768Z,82.55
2018-12-30T10:00:31.110Z,82.12
2018-12-30T10:03:03.483Z,81.65
2018-12-30T10:05:35.457Z,81.50
2018-12-30T10:08:07.487Z,81.01
2018-12-30T10:10:39.530Z,81.21
2018-12-30T10:13:11.590Z,81.39
2018-12-30T10:15:43.637Z,80.67
2018-12-30T10:18:15.620Z,81.17
2018-12-30T10:20:47.637Z,81.32
2018-12-30T10:23:19.657Z,81.07
2018-12-30T10:25:51.695Z,80.70
2018-12-30T10:28:23.724Z,80.81
2018-12-30T10:30:55.740Z,81.21
2018-12-30T10:33:27.778Z,81.03
2018-12-30T10:35:59.819Z,80.12
2018-12-30T10:38:31.838Z,80.56
2018-12-30T10:41:03.969Z,80.76
2018-12-30T10:43:36.029Z,80.88
2018-12-30T10:46:08.049Z,81.19
2018-12-30T10:48:40.078Z,80.88
2018-12-30T10:51:12.110Z,79.56
2018-12-30T10:53:44.197Z,80.24
2018-12-30T10:56:16.258Z,80.74
2018-12-30T10:58:48.294Z,80.88
2018-12-30T11:01:20.381Z,81.13
2018-12-30T11:03:52.357Z,81.17
2018-12-30T11:06:24.432Z,80.67
2018-12-30T11:08:56.459Z,81.17
2018-12-30T11:11:28.489Z,80.85
2018-12-30T11:14:00.528Z,80.42
2018-12-30T11:16:32.551Z,80.74
2018-12-30T11:19:04.607Z,81.00
2018-12-30T11:21:36.671Z,80.90
2018-12-30T11:24:09.011Z,80.67
2018-12-30T11:26:41.642Z,80.79
2018-12-30T11:29:13.694Z,80.28
2018-12-30T11:31:45.723Z,79.79
2018-12-30T11:34:17.732Z,80.40
2018-12-30T11:36:49.747Z,80.11
2018-12-30T11:39:21.797Z,80.08
2018-12-30T11:41:54.852Z,79.92
2018-12-30T11:44:26.971Z,80.21
2018-12-30T11:46:59.048Z,80.42
2018-12-30T11:49:31.091Z,80.47
2018-12-30T11:52:03.229Z,80.05
2018-12-30T11:54:35.535Z,80.34
2018-12-30T11:57:07.561Z,80.29
2018-12-30T11:59:39.643Z,79.40
2018-12-30T12:02:11.714Z,79.95
2018-12-30T12:04:43.805Z,78.70
2018-12-30T12:07:15.904Z,78.02
2018-12-30T12:09:48.057Z,78.51
2018-12-30T12:12:20.122Z,78.17
2018-12-30T12:14:52.190Z,79.06
2018-12-30T12:17:24.180Z,79.45
2018-12-30T12:19:56.265Z,79.68
2018-12-30T12:22:28.279Z,79.39
2018-12-30T12:25:00.399Z,79.88
2018-12-30T12:27:32.435Z,79.56
2018-12-30T12:30:06.224Z,79.63
2018-12-30T12:32:38.301Z,79.97
2018-12-30T12:35:10.414Z,80.00
2018-12-30T12:37:42.453Z,79.42
2018-12-30T12:40:14.527Z,78.50
2018-12-30T12:42:46.561Z,78.53
2018-12-30T12:45:18.657Z,78.54
2018-12-30T12:47:50.766Z,78.97
2018-12-30T12:50:22.781Z,79.11
2018-12-30T12:52:54.830Z,78.72
2018-12-30T12:55:26.950Z,78.64
2018-12-30T12:57:58.979Z,78.39
2018-12-30T13:00:31.035Z,79.17
2018-12-30T13:03:03.149Z,79.81
2018-12-30T13:05:35.238Z,80.00
2018-12-30T13:08:07.257Z,79.56
2018-12-30T13:10:39.298Z,79.30
2018-12-30T13:13:11.402Z,78.26
2018-12-30T13:15:43.660Z,78.49
2018-12-30T13:18:15.676Z,79.30
2018-12-30T13:20:47.699Z,78.55
2018-12-30T13:23:19.798Z,79.07
2018-12-30T13:25:51.834Z,79.49
2018-12-30T13:28:23.999Z,79.21
2018-12-30T13:30:56.022Z,79.55
2018-12-30T13:33:28.071Z,79.84
2018-12-30T13:36:00.088Z,79.78
2018-12-30T13:38:32.142Z,79.62
2018-12-30T13:41:04.155Z,79.49
2018-12-30T13:43:36.208Z,78.33
2018-12-30T13:46:08.267Z,77.79
2018-12-30T13:48:40.325Z,77.98
2018-12-30T13:51:12.408Z,78.20
2018-12-30T13:53:44.567Z,78.46
2018-12-30T13:56:16.614Z,78.73
2018-12-30T13:58:48.679Z,79.21
2018-12-30T14:01:20.702Z,78.36
2018-12-30T14:03:53.012Z,78.68
2018-12-30T14:06:25.063Z,78.34
2018-12-30T14:08:57.134Z,77.48
2018-12-30T14:11:29.227Z,78.40
2018-12-30T14:14:01.259Z,78.56
2018-12-30T14:16:33.360Z,78.43
2018-12-30T14:19:05.391Z,78.83
2018-12-30T14:21:37.459Z,78.72
2018-12-30T14:24:09.437Z,78.21
2018-12-30T14:26:41.496Z,78.52
2018-12-30T14:29:13.501Z,78.65
2018-12-30T14:31:45.614Z,78.86
2018-12-30T14:34:17.627Z,78.87
2018-12-30T14:36:49.699Z,78.96
2018-12-30T14:39:21.807Z,79.04
2018-12-30T14:41:53.930Z,79.12
2018-12-30T14:44:26.012Z,78.33
2018-12-30T14:46:58.133Z,78.72
2018-12-30T14:49:30.335Z,77.95
2018-12-30T14:52:02.375Z,78.71
2018-12-30T14:54:34.416Z,78.90
2018-12-30T14:57:06.515Z,78.98
2018-12-30T14:59:38.600Z,78.92
2018-12-30T15:02:10.662Z,79.26
2018-12-30T15:04:42.677Z,79.75
2018-12-30T15:07:14.767Z,79.25
2018-12-30T15:09:46.865Z,78.10
2018-12-30T15:12:18.910Z,77.81
2018-12-30T15:14:50.969Z,78.01
2018-12-30T15:17:23.122Z,78.28
2018-12-30T15:19:55.209Z,78.91
2018-12-30T15:22:27.265Z,79.44
2018-12-30T15:24:59.308Z,79.51
2018-12-30T15:27:31.386Z,79.52
2018-12-30T15:30:04.499Z,79.42
2018-12-30T15:32:36.537Z,79.34
2018-12-30T15:35:08.546Z,79.69
2018-12-30T15:37:40.588Z,79.21
2018-12-30T15:40:12.623Z,79.85
2018-12-30T15:42:44.727Z,79.78
2018-12-30T15:45:16.784Z,80.02
2018-12-30T15:47:48.830Z,79.64
2018-12-30T15:50:20.855Z,79.69
2018-12-30T15:52:52.928Z,79.78
2018-12-30T15:55:24.937Z,79.15
2018-12-30T15:57:57.052Z,79.59
2018-12-30T16:00:29.129Z,79.51
2018-12-30T16:03:01.188Z,78.70
2018-12-30T16:05:33.315Z,78.68
2018-12-30T16:08:05.357Z,79.46
2018-12-30T16:10:37.425Z,79.46
2018-12-30T16:13:09.488Z,79.86
2018-12-30T16:15:41.724Z,79.73
2018-12-30T16:18:13.843Z,79.73
2018-12-30T16:20:45.929Z,79.11
2018-12-30T16:23:17.956Z,78.89
2018-12-30T16:25:50.178Z,78.92
2018-12-30T16:28:22.246Z,79.11
2018-12-30T16:30:54.326Z,78.57
2018-12-30T16:33:26.380Z,79.21
2018-12-30T16:35:58.400Z,79.71
2018-12-30T16:38:30.443Z,79.69
2018-12-30T16:41:02.517Z,79.70
2018-12-30T16:43:34.579Z,79.99
2018-12-30T16:46:06.689Z,80.31
2018-12-30T16:48:38.746Z,80.07
2018-12-30T16:51:10.827Z,80.15
2018-12-30T16:53:42.880Z,80.52
2018-12-30T16:56:14.932Z,80.68
2018-12-30T16:58:46.967Z,79.72
2018-12-30T17:01:19.025Z,79.53
2018-12-30T17:03:51.068Z,79.96
2018-12-30T17:06:23.144Z,80.30
2018-12-30T17:08:55.187Z,80.07
2018-12-30T17:11:27.204Z,79.95
2018-12-30T17:13:59.289Z,79.78
2018-12-30T17:16:31.307Z,80.25
2018-12-30T17:19:03.430Z,80.51
2018-12-30T17:21:35.465Z,80.55
2018-12-30T17:24:07.489Z,80.66
2018-12-30T17:26:39.516Z,80.80
2018-12-30T17:29:11.594Z,80.85
2018-12-30T17:31:43.607Z,79.89
2018-12-30T17:34:15.651Z,80.45
2018-12-30T17:36:47.665Z,80.88
2018-12-30T17:39:19.691Z,80.91
2018-12-30T17:41:51.735Z,80.91
2018-12-30T17:44:23.766Z,80.96
2018-12-30T17:46:55.828Z,80.21
2018-12-30T17:49:27.896Z,80.35
2018-12-30T17:51:59.882Z,80.40
2018-12-30T17:54:31.954Z,80.40
2018-12-30T17:57:03.950Z,79.82
2018-12-30T17:59:36.043Z,80.26
2018-12-30T18:02:08.031Z,80.32
2018-12-30T18:04:40.096Z,80.57
2018-12-30T18:07:12.176Z,80.54
2018-12-30T18:09:44.239Z,80.62
2018-12-30T18:12:16.295Z,80.91
2018-12-30T18:14:48.333Z,81.14
2018-12-30T18:17:20.390Z,81.42
2018-12-30T18:19:52.649Z,81.35
2018-12-30T18:22:24.695Z,81.32
2018-12-30T18:24:56.707Z,81.63
2018-12-30T18:27:28.767Z,80.88
2018-12-30T18:30:00.830Z,81.41
2018-12-30T18:32:32.944Z,81.17
2018-12-30T18:35:04.973Z,81.79
2018-12-30T18:37:37.042Z,82.03
2018-12-30T18:40:09.140Z,82.09
2018-12-30T18:42:41.193Z,82.19
2018-12-30T18:45:13.199Z,82.27
2018-12-30T18:47:45.246Z,82.53
2018-12-30T18:50:17.290Z,82.43
2018-12-30T18:52:49.352Z,82.46
2018-12-30T18:55:21.413Z,82.45
2018-12-30T18:57:53.507Z,82.41
2018-12-30T19:00:25.620Z,82.39
2018-12-30T19:02:57.742Z,82.30
2018-12-30T19:05:29.811Z,82.37
2018-12-30T19:08:03.669Z,82.29
2018-12-30T19:10:35.869Z,82.32
2018-12-30T19:13:07.940Z,82.31
2018-12-30T19:15:40.072Z,82.64
2018-12-30T19:18:12.151Z,82.77
2018-12-30T19:21:03.654Z,82.83
2018-12-30T19:23:35.709Z,82.37
2018-12-30T19:26:14.305Z,82.70
2018-12-30T19:28:41.722Z,83.05
2018-12-30T19:31:21.162Z,83.12
2018-12-30T19:33:53.259Z,83.21
2018-12-30T19:36:25.325Z,83.46
2018-12-30T19:38:57.413Z,83.56
2018-12-30T19:44:11.551Z,83.88
2018-12-30T19:46:43.626Z,84.06
2018-12-30T19:49:15.716Z,84.07
2018-12-30T19:51:47.774Z,84.19
2018-12-30T19:54:19.834Z,84.40
2018-12-30T19:56:51.938Z,84.60
2018-12-30T19:59:24.023Z,84.85
2018-12-30T20:01:56.136Z,84.98
2018-12-30T20:04:28.256Z,85.14
2018-12-30T20:07:00.320Z,85.10
2018-12-30T20:09:32.317Z,85.23
2018-12-30T20:12:04.363Z,85.19
2018-12-30T20:14:36.402Z,85.30
2018-12-30T20:17:08.489Z,85.45
2018-12-30T20:19:40.511Z,85.65
2018-12-30T20:22:12.553Z,85.70
2018-12-30T20:24:44.571Z,85.74
2018-12-30T20:27:16.901Z,85.82
2018-12-30T20:29:48.973Z,85.88
2018-12-30T20:32:21.072Z,86.05
2018-12-30T20:34:53.094Z,86.13
2018-12-30T20:37:25.160Z,86.22
2018-12-30T20:39:57.162Z,86.28
2018-12-30T20:42:29.179Z,86.46
2018-12-30T20:45:01.225Z,86.57
2018-12-30T20:47:33.298Z,86.56
2018-12-30T20:50:05.592Z,86.75
2018-12-30T20:52:37.720Z,86.88
2018-12-30T20:55:09.785Z,87.00
2018-12-30T20:57:41.954Z,86.96
2018-12-30T21:00:15.472Z,87.06
2018-12-30T21:02:48.259Z,87.03
2018-12-30T21:05:20.401Z,87.05
2018-12-30T21:07:52.493Z,86.93
2018-12-30T21:10:24.567Z,87.11
2018-12-30T21:12:56.679Z,87.19
2018-12-30T21:15:28.701Z,87.29
2018-12-30T21:18:00.798Z,87.47
2018-12-30T21:20:32.858Z,87.52
2018-12-30T21:23:04.961Z,87.42
2018-12-30T21:25:36.991Z,87.46
2018-12-30T21:28:09.055Z,87.46
2018-12-30T21:30:41.071Z,87.58
2018-12-30T21:33:13.130Z,87.64
2018-12-30T21:35:45.183Z,87.73
2018-12-30T21:38:17.198Z,87.78
2018-12-30T21:40:49.252Z,87.90
2018-12-30T21:43:21.263Z,87.95
2018-12-30T21:45:53.332Z,87.85
2018-12-30T21:48:25.357Z,87.92
2018-12-30T21:50:57.432Z,87.93
2018-12-30T21:53:29.474Z,87.97
2018-12-30T21:56:01.554Z,88.11
2018-12-30T21:58:33.575Z,87.90
2018-12-30T22:01:05.643Z,87.90
2018-12-30T22:03:37.795Z,88.14
2018-12-30T22:06:09.915Z,88.28
2018-12-30T22:08:41.945Z,88.38
2018-12-30T22:11:13.970Z,88.37
2018-12-30T22:13:45.992Z,88.31
2018-12-30T22:16:18.067Z,88.43
2018-12-30T22:18:50.087Z,88.55
2018-12-30T22:21:22.120Z,88.61
2018-12-30T22:23:54.154Z,88.67
2018-12-30T22:26:26.220Z,88.71
2018-12-30T22:28:58.268Z,88.71
2018-12-30T22:31:30.319Z,88.87
2018-12-30T22:34:02.351Z,88.79
2018-12-30T22:36:34.392Z,88.72
2018-12-30T22:39:06.631Z,88.84
2018-12-30T22:41:38.710Z,88.87
2018-12-30T22:44:10.728Z,88.93
2018-12-30T22:46:42.786Z,88.92
2018-12-30T22:49:14.789Z,89.02
2018-12-30T22:51:46.896Z,89.17
2018-12-30T22:54:18.930Z,89.10
2018-12-30T22:56:51.001Z,89.24
2018-12-30T22:59:23.038Z,89.16
2018-12-30T23:01:55.096Z,89.11
2018-12-30T23:04:27.150Z,89.03
2018-12-30T23:09:37.156Z,89.06
2018-12-30T23:12:09.174Z,88.91
2018-12-30T23:14:43.921Z,88.93
2018-12-30T23:17:16.024Z,89.04
2018-12-30T23:19:48.098Z,88.98
2018-12-30T23:22:20.183Z,88.94
2018-12-30T23:24:52.223Z,88.82
2018-12-30T23:27:24.315Z,89.01
2018-12-30T23:29:56.340Z,88.55
2018-12-30T23:32:28.373Z,88.65
2018-12-30T23:35:00.421Z,88.72
2018-12-30T23:37:32.486Z,88.67
2018-12-30T23:40:04.518Z,88.72
2018-12-30T23:42:36.565Z,88.72
2018-12-30T23:45:08.569Z,88.72
2018-12-30T23:47:40.571Z,88.71
2018-12-30T23:50:12.591Z,88.79
2018-12-30T23:52:44.619Z,88.77
2018-12-30T23:55:16.651Z,88.81
2018-12-30T23:57:48.713Z,88.77
